Time;durP1;ratioP1;P1;durP2;ratioP2;P2;SDS_P1;SDS_P2;PMS_P1;PMS_P2;Temp;Humidity;BMP_temperature;BMP_pressure;BME280_temperature;BME280_humidity;BME280_pressure;Samples;Min_cycle;Max_cycle;Signal;HPM_P1;HPM_P2
2022/09/23 00:00:20;;;;;;;;;;;;;;;12.63;35.16;101439.38;5016898;28;19925;-69
2022/09/23 00:02:48;;;;;;;;;;;;;;;12.59;35.69;101439.75;5041146;28;19948;-70
2022/09/23 00:05:16;;;;;;;;;;;;;;;12.56;35.11;101440.88;5021620;28;19957;-70
2022/09/23 00:07:44;;;;;;;;;;;;;;;12.54;35.21;101437.41;5019332;28;19925;-71
2022/09/23 00:10:12;;;;;;;;;;;;;;;12.52;35.27;101436.69;5016375;28;19980;-70
2022/09/23 00:12:40;;;;;;;;;;;;;;;12.49;35.56;101445.16;5020922;28;19948;-70
2022/09/23 00:15:10;;;;;;;;;;;;;;;12.45;35.82;101440.97;5030815;28;19932;-70
2022/09/23 00:17:39;;;;;;;;;;;;;;;12.44;35.68;101436.47;5017658;28;19948;-70
2022/09/23 00:20:08;;;;;;;;;;;;;;;12.42;35.44;101442.09;5021167;28;19933;-70
2022/09/23 00:22:36;;;;;;;;;;;;;;;12.42;35.89;101433.84;5015924;28;19925;-69
2022/09/23 00:25:04;;;;;;;;;;;;;;;12.41;35.50;101439.47;5025806;28;19929;-70
2022/09/23 00:27:32;;;;;;;;;;;;;;;12.38;35.92;101432.34;5025021;28;19932;-70
2022/09/23 00:30:00;;;;;;;;;;;;;;;12.37;36.11;101430.63;5038543;28;19933;-70
2022/09/23 00:32:28;;;;;;;;;;;;;;;12.36;35.73;101417.91;5012488;28;19925;-70
2022/09/23 00:34:57;;;;;;;;;;;;;;;12.34;36.09;101417.16;5013670;28;20440;-70
2022/09/23 00:37:24;;;;;;;;;;;;;;;12.34;35.79;101424.53;5028605;28;19926;-69
2022/09/23 00:39:52;;;;;;;;;;;;;;;12.33;35.62;101418.16;5022107;28;19925;-70
2022/09/23 00:42:21;;;;;;;;;;;;;;;12.33;36.10;101425.53;5015101;28;19929;-70
2022/09/23 00:44:49;;;;;;;;;;;;;;;12.31;36.26;101422.91;5018055;28;19933;-69
2022/09/23 00:47:20;;;;;;;;;;;;;;;12.31;35.78;101422.03;5006096;28;19925;-69
2022/09/23 00:49:50;;;;;;;;;;;;;;;12.31;35.94;101422.03;5004392;28;20024;-70
2022/09/23 00:52:21;;;;;;;;;;;;;;;12.28;35.90;101423.19;5002472;28;19933;-70
2022/09/23 00:54:51;;;;;;;;;;;;;;;12.26;36.16;101421.56;5008411;28;20050;-70
2022/09/23 00:57:19;;;;;;;;;;;;;;;12.25;35.97;101414.34;5012680;28;20348;-70
2022/09/23 00:59:47;;;;;;;;;;;;;;;12.22;36.40;101411.84;5029932;28;19995;-70
2022/09/23 01:02:16;;;;;;;;;;;;;;;12.21;35.96;101413.75;5021146;28;19925;-69
2022/09/23 01:04:44;;;;;;;;;;;;;;;12.18;36.43;101414.00;5024717;28;19935;-69
2022/09/23 01:07:12;;;;;;;;;;;;;;;12.16;36.42;101407.78;5018525;28;19925;-70
2022/09/23 01:09:41;;;;;;;;;;;;;;;12.16;36.08;101409.63;5017902;28;19925;-70
2022/09/23 01:12:16;;;;;;;;;;;;;;;12.14;35.69;101407.03;5019026;28;19929;-69
2022/09/23 01:14:48;;;;;;;;;;;;;;;12.13;35.96;101415.41;5022208;28;19948;-70
2022/09/23 01:17:19;;;;;;;;;;;;;;;12.11;36.08;101405.44;4996562;28;19934;-69
2022/09/23 01:19:57;;;;;;;;;;;;;;;12.10;36.16;101406.44;5001010;28;20017;-70
2022/09/23 01:22:28;;;;;;;;;;;;;;;12.09;36.29;101401.94;5000715;28;19926;-70
2022/09/23 01:25:09;;;;;;;;;;;;;;;12.08;36.20;101400.19;5014676;28;19932;-69
2022/09/23 01:27:42;;;;;;;;;;;;;;;12.08;35.93;101402.06;5011987;28;20306;-70
2022/09/23 01:30:16;;;;;;;;;;;;;;;12.06;36.38;101396.69;5012029;28;19996;-70
2022/09/23 01:32:59;;;;;;;;;;;;;;;12.06;36.29;101395.84;5009685;28;19925;-70
2022/09/23 01:35:30;;;;;;;;;;;;;;;12.04;36.46;101393.25;5006596;28;20016;-70
2022/09/23 01:38:04;;;;;;;;;;;;;;;12.04;36.48;101395.13;5007859;28;20481;-69
2022/09/23 01:40:37;;;;;;;;;;;;;;;12.03;36.26;101391.50;5005339;28;19960;-70
2022/09/23 01:43:07;;;;;;;;;;;;;;;12.03;36.25;101388.75;5008934;28;20013;-70
2022/09/23 01:45:38;;;;;;;;;;;;;;;12.02;36.06;101381.53;5004353;28;19925;-70
2022/09/23 01:48:12;;;;;;;;;;;;;;;12.02;36.49;101384.25;5008469;28;20418;-69
2022/09/23 01:50:56;;;;;;;;;;;;;;;12.02;36.09;101387.00;5011448;28;20434;-70
2022/09/23 01:53:28;;;;;;;;;;;;;;;12.02;36.35;101384.25;5006992;28;19941;-70
2022/09/23 01:55:59;;;;;;;;;;;;;;;12.01;36.35;101387.13;5011415;28;19925;-69
2022/09/23 01:58:29;;;;;;;;;;;;;;;12.01;36.21;101388.00;5034638;28;20545;-70
2022/09/23 02:00:59;;;;;;;;;;;;;;;12.01;36.35;101382.53;5018144;28;19971;-70
2022/09/23 02:03:31;;;;;;;;;;;;;;;12.00;36.34;101382.66;5021863;28;19983;-70
2022/09/23 02:06:01;;;;;;;;;;;;;;;11.99;36.37;101380.91;5039570;28;19932;-70
2022/09/23 02:08:31;;;;;;;;;;;;;;;11.99;36.38;101378.16;5037962;28;20334;-70
2022/09/23 02:11:03;;;;;;;;;;;;;;;11.98;36.58;101382.78;5021284;28;19932;-70
2022/09/23 02:13:35;;;;;;;;;;;;;;;11.97;36.33;101380.16;5022712;28;19929;-70
2022/09/23 02:16:07;;;;;;;;;;;;;;;11.97;36.13;101375.53;5009195;28;20346;-72
2022/09/23 02:18:40;;;;;;;;;;;;;;;11.95;36.54;101371.22;5010632;28;19972;-73
2022/09/23 02:21:09;;;;;;;;;;;;;;;11.95;36.75;101368.47;5010290;28;19936;-73
2022/09/23 02:23:39;;;;;;;;;;;;;;;11.94;36.47;101374.94;5009578;28;19932;-73
2022/09/23 02:26:12;;;;;;;;;;;;;;;11.92;37.24;101371.47;5009845;28;19929;-72
2022/09/23 02:28:45;;;;;;;;;;;;;;;11.89;37.39;101369.84;5010237;28;19952;-73
2022/09/23 02:31:16;;;;;;;;;;;;;;;11.88;36.75;101362.63;5009163;28;20016;-73
2022/09/23 02:33:51;;;;;;;;;;;;;;;11.85;36.83;101360.16;5025184;28;19929;-72
2022/09/23 02:36:24;;;;;;;;;;;;;;;11.84;36.83;101358.41;5010182;28;19926;-72
2022/09/23 02:38:56;;;;;;;;;;;;;;;11.83;36.48;101361.25;5009396;28;20448;-71
2022/09/23 02:41:28;;;;;;;;;;;;;;;11.82;36.50;101367.75;5009834;28;20012;-73
2022/09/23 02:44:00;;;;;;;;;;;;;;;11.79;36.72;101357.94;5010239;28;19929;-73
2022/09/23 02:46:28;;;;;;;;;;;;;;;11.79;36.67;101352.44;5023779;28;19926;-73
2022/09/23 02:49:00;;;;;;;;;;;;;;;11.80;36.54;101356.91;5009841;28;20448;-72
2022/09/23 02:51:28;;;;;;;;;;;;;;;11.80;36.56;101350.56;5024506;28;19925;-73
2022/09/23 02:53:56;;;;;;;;;;;;;;;11.79;36.78;101346.97;5009377;28;20410;-70
2022/09/23 02:56:23;;;;;;;;;;;;;;;11.79;36.61;101341.47;5009654;28;20028;-73
2022/09/23 02:58:53;;;;;;;;;;;;;;;11.80;36.84;101342.34;5009518;28;19925;-72
2022/09/23 03:01:30;;;;;;;;;;;;;;;11.78;36.72;101342.47;5024758;28;19976;-71
2022/09/23 03:04:07;;;;;;;;;;;;;;;11.78;36.59;101347.97;5024814;28;19948;-72
2022/09/23 03:06:41;;;;;;;;;;;;;;;11.78;36.70;101342.47;5008985;28;20305;-73
2022/09/23 03:09:13;;;;;;;;;;;;;;;11.76;37.07;101347.22;5008731;28;19925;-69
2022/09/23 03:11:43;;;;;;;;;;;;;;;11.76;36.65;101343.59;5008791;28;19926;-70
2022/09/23 03:14:16;;;;;;;;;;;;;;;11.73;37.35;101340.09;5009493;28;19961;-73
2022/09/23 03:16:49;;;;;;;;;;;;;;;11.72;37.28;101340.22;5008443;28;19925;-72
2022/09/23 03:19:23;;;;;;;;;;;;;;;11.70;37.54;101336.78;5009700;28;19925;-73
2022/09/23 03:21:56;;;;;;;;;;;;;;;11.69;37.04;101327.69;5009423;28;20298;-73
2022/09/23 03:24:24;;;;;;;;;;;;;;;11.68;37.17;101331.41;5008296;28;19930;-73
2022/09/23 03:26:53;;;;;;;;;;;;;;;11.65;37.06;101328.91;5008862;28;19957;-72
2022/09/23 03:29:22;;;;;;;;;;;;;;;11.64;37.34;101327.19;5009279;28;19925;-73
2022/09/23 03:31:50;;;;;;;;;;;;;;;11.63;36.90;101324.59;5008597;28;19929;-70
2022/09/23 03:34:21;;;;;;;;;;;;;;;11.61;37.41;101323.84;5009086;28;20413;-72
2022/09/23 03:36:52;;;;;;;;;;;;;;;11.58;37.79;101318.56;5008811;28;19926;-71
2022/09/23 03:39:27;;;;;;;;;;;;;;;11.57;37.35;101320.44;5009598;28;19925;-71
2022/09/23 03:41:57;;;;;;;;;;;;;;;11.54;37.35;101323.47;5024104;28;20417;-72
2022/09/23 03:44:28;;;;;;;;;;;;;;;11.53;37.42;101331.81;5023915;28;19960;-71
2022/09/23 03:46:58;;;;;;;;;;;;;;;11.51;37.38;101329.19;5008699;28;20017;-73
2022/09/23 03:49:28;;;;;;;;;;;;;;;11.49;37.45;101331.19;5008727;28;19926;-72
2022/09/23 03:51:55;;;;;;;;;;;;;;;11.48;37.21;101323.94;5008698;28;20010;-73
2022/09/23 03:54:23;;;;;;;;;;;;;;;11.48;37.14;101320.34;5008968;28;19929;-70
2022/09/23 03:56:50;;;;;;;;;;;;;;;11.47;37.45;101329.59;5008231;28;19929;-70
2022/09/23 03:59:18;;;;;;;;;;;;;;;11.44;37.69;101325.22;5009413;28;20445;-73
2022/09/23 04:01:46;;;;;;;;;;;;;;;11.43;37.29;101314.38;5008190;28;19948;-72
2022/09/23 04:04:13;;;;;;;;;;;;;;;11.42;37.51;101323.59;5009082;28;20377;-71
2022/09/23 04:06:42;;;;;;;;;;;;;;;11.41;37.64;101319.13;5006267;28;19926;-73
2022/09/23 04:09:10;;;;;;;;;;;;;;;11.40;37.10;101312.75;5009012;28;19925;-73
2022/09/23 04:11:38;;;;;;;;;;;;;;;11.39;37.33;101310.19;5010136;28;19925;-72
2022/09/23 04:14:05;;;;;;;;;;;;;;;11.38;37.13;101297.47;5012565;28;19949;-71
2022/09/23 04:16:33;;;;;;;;;;;;;;;11.36;37.36;101300.34;5012056;28;19988;-73
2022/09/23 04:19:01;;;;;;;;;;;;;;;11.35;37.51;101293.13;5012340;28;19934;-72
2022/09/23 04:21:30;;;;;;;;;;;;;;;11.34;37.85;101296.84;5012689;28;20020;-72
2022/09/23 04:23:59;;;;;;;;;;;;;;;11.33;37.78;101295.97;5027058;28;19926;-70
2022/09/23 04:26:45;;;;;;;;;;;;;;;11.31;37.54;101292.47;5010670;28;19926;-74
2022/09/23 04:29:13;;;;;;;;;;;;;;;11.30;37.67;101288.03;5012859;28;20298;-73
2022/09/23 04:31:40;;;;;;;;;;;;;;;11.28;37.55;101290.03;5026663;28;19980;-71
2022/09/23 04:34:14;;;;;;;;;;;;;;;11.27;37.97;101281.94;5012348;28;20410;-71
2022/09/23 04:36:43;;;;;;;;;;;;;;;11.24;37.76;101285.78;5012151;28;19995;-70
2022/09/23 04:39:13;;;;;;;;;;;;;;;11.23;38.13;101274.94;5011642;28;19925;-69
2022/09/23 04:41:41;;;;;;;;;;;;;;;11.20;37.91;101277.97;5012140;28;19933;-72
2022/09/23 04:44:08;;;;;;;;;;;;;;;11.18;37.80;101277.22;5012718;28;20452;-71
2022/09/23 04:46:37;;;;;;;;;;;;;;;11.18;37.46;101277.22;5012320;28;19926;-73
2022/09/23 04:49:19;;;;;;;;;;;;;;;11.15;37.81;101269.25;5111789;27;19911;-66
2022/09/23 04:51:46;;;;;;;;;;;;;;;11.13;38.09;101276.75;5131770;27;19923;-67
2022/09/23 04:54:14;;;;;;;;;;;;;;;11.10;38.43;101269.63;5127685;28;19928;-67
2022/09/23 04:56:42;;;;;;;;;;;;;;;11.08;38.02;101260.66;5064873;28;19948;-67
2022/09/23 04:59:10;;;;;;;;;;;;;;;11.08;37.92;101265.28;5042668;28;19929;-67
2022/09/23 05:01:37;;;;;;;;;;;;;;;11.05;38.12;101263.69;5042899;28;20410;-68
2022/09/23 05:04:07;;;;;;;;;;;;;;;11.04;38.27;101259.19;5042522;28;20388;-67
2022/09/23 05:06:37;;;;;;;;;;;;;;;11.04;38.25;101272.91;5042517;28;20472;-67
2022/09/23 05:09:05;;;;;;;;;;;;;;;11.03;38.01;101262.94;5034028;28;19925;-67
2022/09/23 05:11:33;;;;;;;;;;;;;;;11.03;37.69;101270.28;5037020;28;19949;-67
2022/09/23 05:14:01;;;;;;;;;;;;;;;11.02;37.82;101271.28;5041674;28;19925;-68
2022/09/23 05:16:29;;;;;;;;;;;;;;;11.02;37.82;101277.63;5042398;28;19929;-67
2022/09/23 05:18:57;;;;;;;;;;;;;;;11.02;37.74;101271.28;5035050;28;19925;-67
2022/09/23 05:21:26;;;;;;;;;;;;;;;11.01;38.14;101275.88;5050420;28;19928;-68
2022/09/23 05:23:57;;;;;;;;;;;;;;;10.99;38.07;101270.53;5041670;28;19925;-67
2022/09/23 05:26:26;;;;;;;;;;;;;;;11.01;37.81;101272.25;5041238;28;20392;-67
2022/09/23 05:28:54;;;;;;;;;;;;;;;10.99;38.05;101272.38;5056630;28;20330;-67
2022/09/23 05:31:22;;;;;;;;;;;;;;;10.99;37.85;101273.25;5053234;28;19964;-67
2022/09/23 05:33:51;;;;;;;;;;;;;;;10.98;38.18;101282.47;5041251;27;19929;-67
2022/09/23 05:36:20;;;;;;;;;;;;;;;10.99;38.08;101272.38;5041113;28;19947;-67
2022/09/23 05:38:48;;;;;;;;;;;;;;;10.99;37.79;101275.13;5044045;28;20411;-67
2022/09/23 05:41:19;;;;;;;;;;;;;;;10.98;37.95;101274.25;5037965;28;19936;-67
2022/09/23 05:43:47;;;;;;;;;;;;;;;11.00;37.53;101279.59;5040051;28;19928;-69
2022/09/23 05:46:15;;;;;;;;;;;;;;;10.99;37.85;101280.59;5033911;28;19972;-69
2022/09/23 05:48:44;;;;;;;;;;;;;;;10.99;38.05;101283.34;5039292;28;19929;-69
2022/09/23 05:51:13;;;;;;;;;;;;;;;10.99;37.87;101280.59;5039030;28;19933;-69
2022/09/23 05:53:44;;;;;;;;;;;;;;;10.98;37.90;101276.13;5054314;28;20208;-69
2022/09/23 05:56:12;;;;;;;;;;;;;;;10.99;37.96;101283.34;5051889;28;19966;-69
2022/09/23 05:58:41;;;;;;;;;;;;;;;10.99;38.13;101280.59;5059072;27;20345;-69
2022/09/23 06:01:09;;;;;;;;;;;;;;;10.98;38.18;101287.94;5042938;28;19991;-69
2022/09/23 06:03:37;;;;;;;;;;;;;;;10.98;38.13;101287.94;5052426;28;19931;-69
2022/09/23 06:06:04;;;;;;;;;;;;;;;10.98;38.17;101281.59;5023420;28;19925;-69
2022/09/23 06:08:33;;;;;;;;;;;;;;;10.97;38.72;101285.34;5046679;28;19973;-69
2022/09/23 06:11:05;;;;;;;;;;;;;;;10.97;38.12;101288.97;5035417;28;20273;-69
2022/09/23 06:13:34;;;;;;;;;;;;;;;10.99;38.10;101295.16;5025410;28;19932;-69
2022/09/23 06:16:03;;;;;;;;;;;;;;;10.99;38.21;101297.91;5028922;28;19929;-69
2022/09/23 06:18:31;;;;;;;;;;;;;;;11.00;38.23;101290.56;5029768;28;19925;-69
2022/09/23 06:21:00;;;;;;;;;;;;;;;11.01;38.22;101284.09;5032664;28;20300;-68
2022/09/23 06:23:29;;;;;;;;;;;;;;;11.04;38.40;101288.47;5053297;28;20297;-67
2022/09/23 06:26:01;;;;;;;;;;;;;;;11.03;38.68;101287.59;5026514;28;19933;-67
2022/09/23 06:28:31;;;;;;;;;;;;;;;11.05;38.57;101282.00;5029002;28;20087;-68
2022/09/23 06:30:59;;;;;;;;;;;;;;;11.08;38.25;101287.19;5050182;27;19928;-69
2022/09/23 06:33:28;;;;;;;;;;;;;;;11.10;38.19;101274.25;5057856;27;19925;-69
2022/09/23 06:36:04;;;;;;;;;;;;;;;11.12;38.72;101280.47;5061018;27;19931;-68
2022/09/23 06:38:33;;;;;;;;;;;;;;;11.14;38.67;101279.31;5044060;28;19932;-69
2022/09/23 06:41:02;;;;;;;;;;;;;;;11.18;38.34;101280.81;5066854;27;19924;-69
2022/09/23 06:43:30;;;;;;;;;;;;;;;11.23;38.64;101281.28;5105392;27;19927;-69
2022/09/23 06:45:58;;;;;;;;;;;;;;;11.27;39.01;101281.94;5140862;27;19923;-69
2022/09/23 06:48:28;;;;;;;;;;;;;;;11.36;39.18;101286.63;5166759;27;19923;-69
2022/09/23 06:50:58;;;;;;;;;;;;;;;11.45;39.42;101287.72;5134282;27;19931;-69
2022/09/23 06:53:26;;;;;;;;;;;;;;;11.57;39.66;101289.41;5141707;27;19927;-69
2022/09/23 06:55:58;;;;;;;;;;;;;;;11.71;39.73;101290.03;5156268;27;19975;-69
2022/09/23 06:58:26;;;;;;;;;;;;;;;11.93;40.03;101280.81;5150942;27;20211;-69
2022/09/23 07:00:54;;;;;;;;;;;;;;;12.15;39.78;101295.41;5159372;27;20331;-69
2022/09/23 07:03:21;;;;;;;;;;;;;;;12.37;39.51;101284.28;5134386;27;19931;-69
2022/09/23 07:05:54;;;;;;;;;;;;;;;12.57;39.55;101290.72;5156890;27;19927;-70
2022/09/23 07:08:21;;;;;;;;;;;;;;;12.78;39.15;101289.72;5131896;27;20014;-70
2022/09/23 07:10:51;;;;;;;;;;;;;;;12.99;39.14;101286.03;5151021;27;19923;-69
2022/09/23 07:13:18;;;;;;;;;;;;;;;13.22;39.13;101285.66;5151368;27;19927;-68
2022/09/23 07:15:49;;;;;;;;;;;;;;;13.46;38.80;101288.00;5130056;27;19923;-69
2022/09/23 07:18:17;;;;;;;;;;;;;;;13.73;38.85;101295.59;5149719;27;20458;-69
2022/09/23 07:20:45;;;;;;;;;;;;;;;13.95;38.17;101287.03;5150897;27;19923;-69
2022/09/23 07:23:16;;;;;;;;;;;;;;;14.18;38.00;101282.13;5150671;27;19962;-69
2022/09/23 07:25:45;;;;;;;;;;;;;;;14.39;37.96;101287.41;5148915;27;19952;-69
2022/09/23 07:28:13;;;;;;;;;;;;;;;14.58;37.66;101289.28;5160119;27;19951;-69
2022/09/23 07:30:40;;;;;;;;;;;;;;;14.72;37.74;101295.16;5107876;27;19970;-69
2022/09/23 07:33:23;;;;;;;;;;;;;;;14.86;37.00;101291.03;5125037;27;19923;-69
2022/09/23 07:35:59;;;;;;;;;;;;;;;14.96;36.79;101282.72;5160921;27;20018;-68
2022/09/23 07:38:30;;;;;;;;;;;;;;;15.01;36.22;101292.25;5151844;27;20402;-69
2022/09/23 07:41:02;;;;;;;;;;;;;;;15.06;36.16;101297.34;5164925;27;19923;-69
2022/09/23 07:43:31;;;;;;;;;;;;;;;15.08;36.01;101298.06;5125231;27;20026;-69
2022/09/23 07:45:59;;;;;;;;;;;;;;;15.07;35.91;101297.19;5062517;27;19948;-69
2022/09/23 07:48:27;;;;;;;;;;;;;;;15.07;36.09;101296.31;5151261;27;19923;-69
2022/09/23 07:51:00;;;;;;;;;;;;;;;15.04;35.58;101289.22;5158895;27;20427;-69
2022/09/23 07:53:30;;;;;;;;;;;;;;;15.02;35.67;101288.50;5146982;27;19923;-69
2022/09/23 07:55:58;;;;;;;;;;;;;;;15.00;35.75;101289.69;5171935;27;19937;-69
2022/09/23 07:58:26;;;;;;;;;;;;;;;14.98;35.73;101291.72;5143246;27;20437;-68
2022/09/23 08:00:53;;;;;;;;;;;;;;;14.96;35.82;101297.38;5159686;27;19922;-68
2022/09/23 08:03:21;;;;;;;;;;;;;;;14.93;35.97;101289.41;5149159;27;20376;-69
2022/09/23 08:05:49;;;;;;;;;;;;;;;14.90;35.52;101291.63;5137136;27;19958;-69
2022/09/23 08:08:17;;;;;;;;;;;;;;;14.88;35.86;101297.28;5149806;27;20075;-68
2022/09/23 08:10:46;;;;;;;;;;;;;;;14.86;35.98;101298.44;5146475;27;20017;-68
2022/09/23 08:13:13;;;;;;;;;;;;;;;14.83;35.88;101291.38;5126786;27;19923;-68
2022/09/23 08:15:43;;;;;;;;;;;;;;;14.83;36.00;101299.63;5147974;27;19927;-68
2022/09/23 08:18:10;;;;;;;;;;;;;;;14.80;35.72;101299.91;5139993;27;19930;-68
2022/09/23 08:20:44;;;;;;;;;;;;;;;14.79;35.44;101302.81;5093948;27;19930;-68
2022/09/23 08:23:15;;;;;;;;;;;;;;;14.78;35.84;101290.94;5117911;27;19924;-69
2022/09/23 08:25:45;;;;;;;;;;;;;;;14.75;35.74;101294.88;5146919;27;19927;-68
2022/09/23 08:28:17;;;;;;;;;;;;;;;14.75;35.32;101294.88;5150577;27;19927;-68
2022/09/23 08:30:48;;;;;;;;;;;;;;;14.74;35.40;101290.38;5146261;27;19930;-68
2022/09/23 08:33:16;;;;;;;;;;;;;;;14.73;35.87;101288.66;5150819;27;20359;-68
2022/09/23 08:35:50;;;;;;;;;;;;;;;14.74;35.35;101281.25;5147715;27;19923;-68
2022/09/23 08:38:17;;;;;;;;;;;;;;;14.73;35.37;101276.75;5155204;27;19988;-68
2022/09/23 08:40:47;;;;;;;;;;;;;;;14.72;35.36;101281.41;5152707;27;19930;-68
2022/09/23 08:43:21;;;;;;;;;;;;;;;14.74;35.64;101279.38;5142822;27;19923;-68
2022/09/23 08:45:50;;;;;;;;;;;;;;;14.76;35.97;101277.28;5153360;27;20714;-68
2022/09/23 08:48:22;;;;;;;;;;;;;;;14.76;35.63;101276.47;5146870;27;19923;-68
2022/09/23 08:50:52;;;;;;;;;;;;;;;14.81;35.58;101278.75;5153064;27;19923;-68
2022/09/23 08:53:24;;;;;;;;;;;;;;;14.82;35.93;101284.13;5148044;27;20370;-68
2022/09/23 08:55:53;;;;;;;;;;;;;;;14.84;35.46;101287.59;5148404;27;20401;-68
2022/09/23 08:58:29;;;;;;;;;;;;;;;14.89;35.75;101287.13;5161490;27;20446;-68
2022/09/23 09:01:03;;;;;;;;;;;;;;;14.91;36.09;101280.44;5148500;27;19923;-68
2022/09/23 09:03:34;;;;;;;;;;;;;;;14.94;35.97;101276.50;5149489;27;19923;-68
2022/09/23 09:06:02;;;;;;;;;;;;;;;14.98;36.01;101272.44;5149646;27;20453;-69
2022/09/23 09:08:32;;;;;;;;;;;;;;;15.01;35.85;101278.47;5151755;27;20378;-70
2022/09/23 09:11:00;;;;;;;;;;;;;;;15.04;35.47;101274.56;5146107;27;19930;-69
2022/09/23 09:13:31;;;;;;;;;;;;;;;15.06;35.70;101276.16;5152872;27;19948;-69
2022/09/23 09:16:10;;;;;;;;;;;;;;;15.08;35.65;101273.25;5152507;27;20018;-69
2022/09/23 09:18:39;;;;;;;;;;;;;;;15.10;35.49;101266.53;5148153;27;20010;-69
2022/09/23 09:21:11;;;;;;;;;;;;;;;15.12;35.87;101270.03;5159244;27;19923;-69
2022/09/23 09:23:43;;;;;;;;;;;;;;;15.15;35.48;101277.13;5154983;27;19930;-69
2022/09/23 09:26:11;;;;;;;;;;;;;;;15.18;35.50;101264.94;5156362;27;19981;-69
2022/09/23 09:28:43;;;;;;;;;;;;;;;15.21;35.85;101270.13;5157469;27;19964;-69
2022/09/23 09:31:20;;;;;;;;;;;;;;;15.23;35.53;101270.84;5168999;27;20003;-69
2022/09/23 09:34:04;;;;;;;;;;;;;;;15.27;35.70;101272.25;5155560;27;19931;-69
2022/09/23 09:36:35;;;;;;;;;;;;;;;15.30;35.48;101267.31;5140354;27;20329;-69
2022/09/23 09:39:03;;;;;;;;;;;;;;;15.35;35.51;101255.81;5151375;27;20014;-69
2022/09/23 09:41:31;;;;;;;;;;;;;;;15.38;35.50;101261.91;5164092;27;19930;-69
2022/09/23 09:44:02;;;;;;;;;;;;;;;15.42;35.92;101252.28;5162796;27;19946;-69
2022/09/23 09:46:46;;;;;;;;;;;;;;;15.47;35.90;101262.84;5162218;27;19923;-69
2022/09/23 09:49:22;;;;;;;;;;;;;;;15.52;35.40;101253.09;5164431;27;20271;-70
2022/09/23 09:52:11;;;;;;;;;;;;;;;15.57;35.70;101249.88;5146329;27;19923;-68
2022/09/23 09:54:39;;;;;;;;;;;;;;;15.62;35.45;101250.25;5160418;27;19923;-69
2022/09/23 09:57:12;;;;;;;;;;;;;;;15.64;35.33;101250.97;5154316;27;19927;-68
2022/09/23 09:59:42;;;;;;;;;;;;;;;15.69;35.05;101242.19;5156201;27;20382;-68
2022/09/23 10:02:20;;;;;;;;;;;;;;;15.76;35.27;101237.78;5155355;27;20371;-68
2022/09/23 10:04:54;;;;;;;;;;;;;;;15.82;35.34;101243.56;5156503;27;20310;-68
2022/09/23 10:07:24;;;;;;;;;;;;;;;15.88;35.80;101245.66;5164109;27;19930;-68
2022/09/23 10:09:52;;;;;;;;;;;;;;;15.95;35.94;101239.50;5162916;27;19969;-68
2022/09/23 10:12:42;;;;;;;;;;;;;;;16.00;35.63;101240.72;5166784;27;19975;-68
2022/09/23 10:15:26;;;;;;;;;;;;;;;16.08;35.23;101238.06;5143957;27;19927;-70
2022/09/23 10:17:54;;;;;;;;;;;;;;;16.16;35.38;101240.91;5172451;27;19922;-69
2022/09/23 10:20:24;;;;;;;;;;;;;;;16.23;35.55;101230.09;5157989;27;19926;-68
2022/09/23 10:22:55;;;;;;;;;;;;;;;16.30;35.69;101233.06;5159679;27;20429;-68
2022/09/23 10:25:25;;;;;;;;;;;;;;;16.36;35.31;101236.03;5151964;27;19923;-68
2022/09/23 10:27:53;;;;;;;;;;;;;;;16.45;35.27;101239.72;5129044;27;19930;-68
2022/09/23 10:30:23;;;;;;;;;;;;;;;16.52;35.44;101243.56;5143736;27;20310;-69
2022/09/23 10:32:52;;;;;;;;;;;;;;;16.59;35.69;101236.31;5155691;27;19923;-69
2022/09/23 10:35:21;;;;;;;;;;;;;;;16.67;35.21;101235.50;5151221;27;20375;-68
2022/09/23 10:37:50;;;;;;;;;;;;;;;16.74;35.38;101236.59;5158214;27;19923;-68
2022/09/23 10:49:11;;;;;;;;;;;;;;;17.07;35.51;101218.28;5126859;22;20415;-74
2022/09/23 10:51:44;;;;;;;;;;;;;;;17.16;34.98;101220.88;5071538;28;20553;-74
2022/09/23 10:54:17;;;;;;;;;;;;;;;17.25;34.85;101221.75;5075729;28;19931;-74
2022/09/23 10:56:47;;;;;;;;;;;;;;;17.33;34.87;101222.66;5056155;28;19931;-70
2022/09/23 10:59:40;;;;;;;;;;;;;;;17.43;35.00;101219.72;5052201;28;19951;-74
2022/09/23 11:02:17;;;;;;;;;;;;;;;17.54;34.80;101216.66;5050083;28;19924;-70
2022/09/23 11:04:59;;;;;;;;;;;;;;;17.64;34.92;101219.25;5069509;28;19931;-73
2022/09/23 11:07:29;;;;;;;;;;;;;;;17.74;34.90;101211.66;5041331;28;19986;-73
2022/09/23 11:10:14;;;;;;;;;;;;;;;17.83;33.95;101212.53;5052830;28;19931;-73
2022/09/23 11:13:06;;;;;;;;;;;;;;;17.94;34.16;101212.19;5061959;28;20293;-73
2022/09/23 11:15:38;;;;;;;;;;;;;;;18.01;34.73;101199.34;5068670;28;19946;-71
2022/09/23 11:18:16;;;;;;;;;;;;;;;18.09;34.28;101205.75;5070196;28;20027;-70
2022/09/23 11:20:47;;;;;;;;;;;;;;;18.18;34.79;101198.31;5064702;28;19932;-70
2022/09/23 11:23:22;;;;;;;;;;;;;;;18.26;34.45;101194.66;5061801;28;20010;-74
2022/09/23 11:25:54;;;;;;;;;;;;;;;18.35;34.18;101190.81;5066583;28;20316;-73
2022/09/23 11:28:30;;;;;;;;;;;;;;;18.44;34.46;101189.75;5047131;28;19925;-73
2022/09/23 11:31:04;;;;;;;;;;;;;;;18.52;34.04;101196.16;5049786;28;20541;-73
2022/09/23 11:33:44;;;;;;;;;;;;;;;18.60;34.29;101192.50;5069368;28;19924;-73
2022/09/23 11:36:15;;;;;;;;;;;;;;;18.69;34.31;101188.66;5075918;28;19931;-73
2022/09/23 11:38:46;;;;;;;;;;;;;;;18.77;33.69;101174.75;5068169;28;19963;-71
2022/09/23 11:41:17;;;;;;;;;;;;;;;18.84;33.84;101181.31;5080707;28;20020;-69
2022/09/23 11:43:50;;;;;;;;;;;;;;;18.92;33.68;101176.75;5070882;28;20408;-69
2022/09/23 11:46:23;;;;;;;;;;;;;;;18.97;33.54;101174.28;5088585;28;19924;-73
2022/09/23 11:48:56;;;;;;;;;;;;;;;19.02;33.40;101172.72;5088169;28;19932;-69
2022/09/23 11:51:26;;;;;;;;;;;;;;;19.08;33.38;101169.22;5082016;28;19924;-70
2022/09/23 11:53:57;;;;;;;;;;;;;;;19.12;33.53;101176.13;5089194;28;20022;-71
2022/09/23 11:56:27;;;;;;;;;;;;;;;19.16;33.46;101169.16;5069888;28;19924;-70
2022/09/23 11:59:05;;;;;;;;;;;;;;;19.19;33.27;101166.03;5088916;28;19951;-74
2022/09/23 12:01:36;;;;;;;;;;;;;;;19.22;33.30;101162.91;5088585;28;20023;-70
2022/09/23 12:04:15;;;;;;;;;;;;;;;19.25;33.12;101164.44;5079333;28;19924;-73
2022/09/23 12:06:48;;;;;;;;;;;;;;;19.27;32.66;101157.69;5084480;28;20003;-73
2022/09/23 12:09:20;;;;;;;;;;;;;;;19.30;33.05;101156.44;5080812;28;19927;-70
2022/09/23 12:12:13;;;;;;;;;;;;;;;19.31;32.81;101154.53;5069382;28;20011;-72
2022/09/23 12:14:49;;;;;;;;;;;;;;;19.32;32.38;101150.69;5084897;28;20356;-73
2022/09/23 12:17:23;;;;;;;;;;;;;;;19.32;32.79;101148.78;5084536;28;19956;-70
2022/09/23 12:20:15;;;;;;;;;;;;;;;19.33;32.85;101153.28;5088564;28;19928;-73
2022/09/23 12:22:51;;;;;;;;;;;;;;;19.32;32.31;101151.56;5064025;28;20015;-72
2022/09/23 12:25:34;;;;;;;;;;;;;;;19.33;32.25;101149.66;5082560;28;19974;-73
2022/09/23 12:28:04;;;;;;;;;;;;;;;19.34;32.30;101145.84;5088198;28;19931;-73
2022/09/23 12:30:34;;;;;;;;;;;;;;;19.33;32.58;101141.31;5079638;28;19928;-72
2022/09/23 12:33:07;;;;;;;;;;;;;;;19.33;32.69;101150.53;5080610;28;19963;-74
2022/09/23 12:35:37;;;;;;;;;;;;;;;19.32;32.31;101137.69;5081876;28;20567;-72
2022/09/23 12:38:13;;;;;;;;;;;;;;;19.31;32.44;101138.72;5069410;28;19925;-72
2022/09/23 12:40:43;;;;;;;;;;;;;;;19.32;32.00;101136.81;5067712;28;19960;-70
2022/09/23 12:43:17;;;;;;;;;;;;;;;19.30;32.03;101134.22;5072619;28;19933;-73
2022/09/23 12:45:46;;;;;;;;;;;;;;;19.30;32.40;101133.34;5086485;28;19963;-72
2022/09/23 12:48:43;;;;;;;;;;;;;;;19.29;32.17;101137.22;5088620;28;19928;-73
2022/09/23 12:51:20;;;;;;;;;;;;;;;19.27;32.03;101131.84;5057638;28;20385;-73
2022/09/23 12:54:00;;;;;;;;;;;;;;;19.26;31.92;101135.66;5083188;28;20396;-73
2022/09/23 12:56:46;;;;;;;;;;;;;;;19.25;32.05;101128.38;5052861;28;20026;-72
2022/09/23 12:59:24;;;;;;;;;;;;;;;19.23;32.28;101133.25;5088110;28;20442;-73
2022/09/23 13:01:51;;;;;;;;;;;;;;;19.21;32.05;101135.38;5087614;28;19924;-71
2022/09/23 13:07:22;;;;;;;;;;;;;;;19.15;31.92;101138.81;5078489;28;19924;-73